sensor_id;sensor_type;location;lat;lon;timestamp;P1;durP1;ratioP1;P2;durP2;ratioP2
46090;SDS011;31826;53.572;10.170;2023-04-08T00:01:12;17.47;;;7.93;;
46090;SDS011;31826;53.572;10.170;2023-04-08T00:03:38;16.03;;;6.90;;
46090;SDS011;31826;53.572;10.170;2023-04-08T00:06:04;17.55;;;6.55;;
46090;SDS011;31826;53.572;10.170;2023-04-08T00:08:30;18.23;;;8.45;;
46090;SDS011;31826;53.572;10.170;2023-04-08T00:10:56;19.35;;;7.65;;
46090;SDS011;31826;53.572;10.170;2023-04-08T00:13:21;16.80;;;7.43;;
46090;SDS011;31826;53.572;10.170;2023-04-08T00:15:47;16.13;;;7.65;;
46090;SDS011;31826;53.572;10.170;2023-04-08T00:18:13;18.30;;;7.57;;
46090;SDS011;31826;53.572;10.170;2023-04-08T00:20:41;16.67;;;6.55;;
46090;SDS011;31826;53.572;10.170;2023-04-08T00:23:07;19.33;;;7.70;;
46090;SDS011;31826;53.572;10.170;2023-04-08T00:25:33;14.90;;;6.57;;
46090;SDS011;31826;53.572;10.170;2023-04-08T00:27:59;15.80;;;6.95;;
46090;SDS011;31826;53.572;10.170;2023-04-08T00:30:25;15.10;;;6.13;;
46090;SDS011;31826;53.572;10.170;2023-04-08T00:32:54;14.70;;;6.03;;
46090;SDS011;31826;53.572;10.170;2023-04-08T00:35:19;16.37;;;6.70;;
46090;SDS011;31826;53.572;10.170;2023-04-08T00:37:45;15.38;;;5.57;;
46090;SDS011;31826;53.572;10.170;2023-04-08T00:40:12;14.20;;;5.88;;
46090;SDS011;31826;53.572;10.170;2023-04-08T00:42:38;13.88;;;6.03;;
46090;SDS011;31826;53.572;10.170;2023-04-08T00:45:03;14.80;;;6.43;;
46090;SDS011;31826;53.572;10.170;2023-04-08T00:47:30;14.52;;;6.30;;
46090;SDS011;31826;53.572;10.170;2023-04-08T00:49:56;14.30;;;6.15;;
46090;SDS011;31826;53.572;10.170;2023-04-08T00:52:22;14.82;;;6.78;;
46090;SDS011;31826;53.572;10.170;2023-04-08T00:54:47;13.23;;;5.80;;
46090;SDS011;31826;53.572;10.170;2023-04-08T00:57:13;14.23;;;6.40;;
46090;SDS011;31826;53.572;10.170;2023-04-08T00:59:39;12.73;;;5.90;;
46090;SDS011;31826;53.572;10.170;2023-04-08T01:04:57;13.60;;;5.90;;
46090;SDS011;31826;53.572;10.170;2023-04-08T01:07:28;13.63;;;5.75;;
46090;SDS011;31826;53.572;10.170;2023-04-08T01:10:09;12.50;;;5.50;;
46090;SDS011;31826;53.572;10.170;2023-04-08T01:12:40;17.58;;;6.20;;
46090;SDS011;31826;53.572;10.170;2023-04-08T01:15:13;12.55;;;5.50;;
46090;SDS011;31826;53.572;10.170;2023-04-08T01:17:39;13.52;;;5.70;;
46090;SDS011;31826;53.572;10.170;2023-04-08T01:20:07;13.50;;;6.13;;
46090;SDS011;31826;53.572;10.170;2023-04-08T01:25:26;15.35;;;6.30;;
46090;SDS011;31826;53.572;10.170;2023-04-08T01:28:05;12.90;;;5.60;;
46090;SDS011;31826;53.572;10.170;2023-04-08T01:30:34;14.82;;;7.38;;
46090;SDS011;31826;53.572;10.170;2023-04-08T01:33:03;13.30;;;6.70;;
46090;SDS011;31826;53.572;10.170;2023-04-08T01:35:30;17.45;;;6.57;;
46090;SDS011;31826;53.572;10.170;2023-04-08T01:37:56;17.90;;;6.13;;
46090;SDS011;31826;53.572;10.170;2023-04-08T01:40:23;17.33;;;7.07;;
46090;SDS011;31826;53.572;10.170;2023-04-08T01:42:49;16.75;;;7.38;;
46090;SDS011;31826;53.572;10.170;2023-04-08T01:45:18;16.30;;;6.70;;
46090;SDS011;31826;53.572;10.170;2023-04-08T01:47:45;15.32;;;6.53;;
46090;SDS011;31826;53.572;10.170;2023-04-08T01:50:12;16.00;;;6.88;;
46090;SDS011;31826;53.572;10.170;2023-04-08T01:52:39;16.70;;;6.80;;
46090;SDS011;31826;53.572;10.170;2023-04-08T01:55:07;16.60;;;6.75;;
46090;SDS011;31826;53.572;10.170;2023-04-08T01:57:34;14.65;;;6.38;;
46090;SDS011;31826;53.572;10.170;2023-04-08T02:00:04;16.67;;;6.80;;
46090;SDS011;31826;53.572;10.170;2023-04-08T02:02:35;15.77;;;7.03;;
46090;SDS011;31826;53.572;10.170;2023-04-08T02:05:02;15.73;;;6.85;;
46090;SDS011;31826;53.572;10.170;2023-04-08T02:07:28;15.35;;;6.60;;
46090;SDS011;31826;53.572;10.170;2023-04-08T02:09:54;15.20;;;6.68;;
46090;SDS011;31826;53.572;10.170;2023-04-08T02:12:21;13.83;;;6.67;;
46090;SDS011;31826;53.572;10.170;2023-04-08T02:14:47;17.42;;;7.18;;
46090;SDS011;31826;53.572;10.170;2023-04-08T02:19:51;15.40;;;6.10;;
46090;SDS011;31826;53.572;10.170;2023-04-08T02:22:38;14.63;;;6.28;;
46090;SDS011;31826;53.572;10.170;2023-04-08T02:25:07;12.30;;;5.72;;
46090;SDS011;31826;53.572;10.170;2023-04-08T02:27:39;13.48;;;5.70;;
46090;SDS011;31826;53.572;10.170;2023-04-08T02:30:09;14.80;;;6.13;;
46090;SDS011;31826;53.572;10.170;2023-04-08T02:32:36;15.63;;;6.32;;
46090;SDS011;31826;53.572;10.170;2023-04-08T02:35:03;12.60;;;5.90;;
46090;SDS011;31826;53.572;10.170;2023-04-08T02:37:30;15.18;;;6.57;;
46090;SDS011;31826;53.572;10.170;2023-04-08T02:39:57;13.95;;;6.47;;
46090;SDS011;31826;53.572;10.170;2023-04-08T02:42:23;14.83;;;6.67;;
46090;SDS011;31826;53.572;10.170;2023-04-08T02:44:49;15.20;;;5.97;;
46090;SDS011;31826;53.572;10.170;2023-04-08T02:47:15;13.73;;;6.63;;
46090;SDS011;31826;53.572;10.170;2023-04-08T02:49:41;14.13;;;6.25;;
46090;SDS011;31826;53.572;10.170;2023-04-08T02:52:07;13.68;;;6.63;;
46090;SDS011;31826;53.572;10.170;2023-04-08T02:54:33;15.93;;;7.07;;
46090;SDS011;31826;53.572;10.170;2023-04-08T02:56:58;15.65;;;7.03;;
46090;SDS011;31826;53.572;10.170;2023-04-08T02:59:24;15.57;;;7.15;;
46090;SDS011;31826;53.572;10.170;2023-04-08T03:01:50;14.32;;;6.75;;
46090;SDS011;31826;53.572;10.170;2023-04-08T03:04:16;17.05;;;6.88;;
46090;SDS011;31826;53.572;10.170;2023-04-08T03:06:41;16.05;;;6.85;;
46090;SDS011;31826;53.572;10.170;2023-04-08T03:09:07;14.27;;;6.90;;
46090;SDS011;31826;53.572;10.170;2023-04-08T03:11:33;15.40;;;7.07;;
46090;SDS011;31826;53.572;10.170;2023-04-08T03:13:59;16.55;;;7.22;;
46090;SDS011;31826;53.572;10.170;2023-04-08T03:16:25;17.50;;;8.02;;
46090;SDS011;31826;53.572;10.170;2023-04-08T03:18:51;16.47;;;7.83;;
46090;SDS011;31826;53.572;10.170;2023-04-08T03:21:17;19.13;;;8.07;;
46090;SDS011;31826;53.572;10.170;2023-04-08T03:23:43;20.45;;;8.90;;
46090;SDS011;31826;53.572;10.170;2023-04-08T03:26:09;19.55;;;8.82;;
46090;SDS011;31826;53.572;10.170;2023-04-08T03:28:35;22.05;;;9.82;;
46090;SDS011;31826;53.572;10.170;2023-04-08T03:31:02;23.70;;;9.82;;
46090;SDS011;31826;53.572;10.170;2023-04-08T03:33:28;20.40;;;9.55;;
46090;SDS011;31826;53.572;10.170;2023-04-08T03:35:54;23.08;;;9.63;;
46090;SDS011;31826;53.572;10.170;2023-04-08T03:38:20;20.60;;;9.43;;
46090;SDS011;31826;53.572;10.170;2023-04-08T03:40:46;25.05;;;11.27;;
46090;SDS011;31826;53.572;10.170;2023-04-08T03:43:12;25.30;;;11.75;;
46090;SDS011;31826;53.572;10.170;2023-04-08T03:45:38;22.35;;;10.32;;
46090;SDS011;31826;53.572;10.170;2023-04-08T03:48:04;25.97;;;10.80;;
46090;SDS011;31826;53.572;10.170;2023-04-08T03:50:30;24.77;;;9.55;;
46090;SDS011;31826;53.572;10.170;2023-04-08T03:52:56;22.25;;;9.82;;
46090;SDS011;31826;53.572;10.170;2023-04-08T03:55:21;26.67;;;9.82;;
46090;SDS011;31826;53.572;10.170;2023-04-08T03:57:47;23.65;;;9.70;;
46090;SDS011;31826;53.572;10.170;2023-04-08T04:00:13;23.73;;;10.02;;
46090;SDS011;31826;53.572;10.170;2023-04-08T04:02:39;22.77;;;10.00;;
46090;SDS011;31826;53.572;10.170;2023-04-08T04:05:05;23.10;;;9.23;;
46090;SDS011;31826;53.572;10.170;2023-04-08T04:07:31;22.90;;;9.98;;
46090;SDS011;31826;53.572;10.170;2023-04-08T04:09:57;18.52;;;8.35;;
46090;SDS011;31826;53.572;10.170;2023-04-08T04:12:22;19.83;;;8.52;;
46090;SDS011;31826;53.572;10.170;2023-04-08T04:14:48;19.52;;;8.30;;
46090;SDS011;31826;53.572;10.170;2023-04-08T04:17:14;19.52;;;8.38;;
46090;SDS011;31826;53.572;10.170;2023-04-08T04:19:40;22.13;;;7.45;;
46090;SDS011;31826;53.572;10.170;2023-04-08T04:22:06;20.38;;;8.40;;
46090;SDS011;31826;53.572;10.170;2023-04-08T04:24:32;21.30;;;8.68;;
46090;SDS011;31826;53.572;10.170;2023-04-08T04:26:57;21.37;;;9.00;;
46090;SDS011;31826;53.572;10.170;2023-04-08T04:29:23;20.38;;;8.30;;
46090;SDS011;31826;53.572;10.170;2023-04-08T04:31:49;20.90;;;9.10;;
46090;SDS011;31826;53.572;10.170;2023-04-08T04:34:14;18.85;;;8.30;;
46090;SDS011;31826;53.572;10.170;2023-04-08T04:36:40;18.52;;;8.27;;
46090;SDS011;31826;53.572;10.170;2023-04-08T04:39:06;23.50;;;8.55;;
46090;SDS011;31826;53.572;10.170;2023-04-08T04:41:31;18.55;;;7.93;;
46090;SDS011;31826;53.572;10.170;2023-04-08T04:43:59;21.57;;;8.67;;
46090;SDS011;31826;53.572;10.170;2023-04-08T04:46:25;18.08;;;7.60;;
46090;SDS011;31826;53.572;10.170;2023-04-08T04:48:51;18.77;;;7.60;;
46090;SDS011;31826;53.572;10.170;2023-04-08T04:51:17;20.30;;;7.40;;
46090;SDS011;31826;53.572;10.170;2023-04-08T04:53:42;16.45;;;8.02;;
46090;SDS011;31826;53.572;10.170;2023-04-08T04:56:08;22.80;;;8.75;;
46090;SDS011;31826;53.572;10.170;2023-04-08T04:58:34;21.33;;;8.45;;
46090;SDS011;31826;53.572;10.170;2023-04-08T05:01:00;18.70;;;8.32;;
46090;SDS011;31826;53.572;10.170;2023-04-08T05:03:25;21.20;;;8.37;;
46090;SDS011;31826;53.572;10.170;2023-04-08T05:05:52;20.92;;;8.15;;
46090;SDS011;31826;53.572;10.170;2023-04-08T05:08:18;22.70;;;8.45;;
46090;SDS011;31826;53.572;10.170;2023-04-08T05:10:44;22.30;;;8.18;;
46090;SDS011;31826;53.572;10.170;2023-04-08T05:13:12;19.58;;;8.20;;
46090;SDS011;31826;53.572;10.170;2023-04-08T05:15:38;19.88;;;8.00;;
46090;SDS011;31826;53.572;10.170;2023-04-08T05:18:03;19.27;;;7.80;;
46090;SDS011;31826;53.572;10.170;2023-04-08T05:20:29;19.95;;;8.95;;
46090;SDS011;31826;53.572;10.170;2023-04-08T05:22:55;20.73;;;9.02;;
46090;SDS011;31826;53.572;10.170;2023-04-08T05:25:21;21.63;;;9.20;;
46090;SDS011;31826;53.572;10.170;2023-04-08T05:27:46;21.60;;;9.57;;
46090;SDS011;31826;53.572;10.170;2023-04-08T05:30:12;19.93;;;9.03;;
46090;SDS011;31826;53.572;10.170;2023-04-08T05:32:38;23.20;;;8.10;;
46090;SDS011;31826;53.572;10.170;2023-04-08T05:35:03;21.07;;;7.83;;
46090;SDS011;31826;53.572;10.170;2023-04-08T05:37:30;20.02;;;7.65;;
46090;SDS011;31826;53.572;10.170;2023-04-08T05:39:55;21.13;;;8.18;;
46090;SDS011;31826;53.572;10.170;2023-04-08T05:42:21;17.00;;;7.88;;
46090;SDS011;31826;53.572;10.170;2023-04-08T05:44:47;19.50;;;8.15;;
46090;SDS011;31826;53.572;10.170;2023-04-08T05:47:12;21.05;;;8.55;;
46090;SDS011;31826;53.572;10.170;2023-04-08T05:49:39;20.80;;;8.10;;
46090;SDS011;31826;53.572;10.170;2023-04-08T05:52:04;21.27;;;8.68;;
46090;SDS011;31826;53.572;10.170;2023-04-08T05:54:31;19.63;;;7.83;;
46090;SDS011;31826;53.572;10.170;2023-04-08T05:56:56;19.55;;;7.78;;
46090;SDS011;31826;53.572;10.170;2023-04-08T05:59:22;19.27;;;7.65;;
46090;SDS011;31826;53.572;10.170;2023-04-08T06:01:48;20.52;;;8.52;;
46090;SDS011;31826;53.572;10.170;2023-04-08T06:04:14;21.08;;;8.85;;
46090;SDS011;31826;53.572;10.170;2023-04-08T06:06:41;22.27;;;8.73;;
46090;SDS011;31826;53.572;10.170;2023-04-08T06:09:07;23.55;;;8.70;;
46090;SDS011;31826;53.572;10.170;2023-04-08T06:11:36;21.63;;;8.80;;
46090;SDS011;31826;53.572;10.170;2023-04-08T06:14:02;18.75;;;7.97;;
46090;SDS011;31826;53.572;10.170;2023-04-08T06:16:27;19.40;;;7.97;;
46090;SDS011;31826;53.572;10.170;2023-04-08T06:18:53;20.35;;;8.45;;
46090;SDS011;31826;53.572;10.170;2023-04-08T06:21:19;19.05;;;8.15;;
46090;SDS011;31826;53.572;10.170;2023-04-08T06:23:45;20.42;;;8.15;;
46090;SDS011;31826;53.572;10.170;2023-04-08T06:26:11;20.92;;;8.63;;
46090;SDS011;31826;53.572;10.170;2023-04-08T06:28:37;18.37;;;7.80;;
46090;SDS011;31826;53.572;10.170;2023-04-08T06:31:03;20.03;;;9.00;;
46090;SDS011;31826;53.572;10.170;2023-04-08T06:33:29;21.40;;;9.80;;
46090;SDS011;31826;53.572;10.170;2023-04-08T06:36:02;20.87;;;9.10;;
46090;SDS011;31826;53.572;10.170;2023-04-08T06:38:28;21.85;;;9.45;;
46090;SDS011;31826;53.572;10.170;2023-04-08T06:40:55;22.25;;;9.20;;
46090;SDS011;31826;53.572;10.170;2023-04-08T06:43:20;23.02;;;8.57;;
46090;SDS011;31826;53.572;10.170;2023-04-08T06:45:46;23.65;;;9.50;;
46090;SDS011;31826;53.572;10.170;2023-04-08T06:48:12;26.65;;;10.07;;
46090;SDS011;31826;53.572;10.170;2023-04-08T06:50:37;22.63;;;8.37;;
46090;SDS011;31826;53.572;10.170;2023-04-08T06:53:03;19.37;;;9.10;;
46090;SDS011;31826;53.572;10.170;2023-04-08T06:55:29;21.13;;;8.00;;
46090;SDS011;31826;53.572;10.170;2023-04-08T06:57:55;20.97;;;7.73;;
46090;SDS011;31826;53.572;10.170;2023-04-08T07:00:20;21.47;;;8.47;;
46090;SDS011;31826;53.572;10.170;2023-04-08T07:02:46;19.63;;;7.90;;
46090;SDS011;31826;53.572;10.170;2023-04-08T07:05:12;22.07;;;8.77;;
46090;SDS011;31826;53.572;10.170;2023-04-08T07:07:37;20.33;;;7.67;;
46090;SDS011;31826;53.572;10.170;2023-04-08T07:10:03;20.60;;;8.03;;
46090;SDS011;31826;53.572;10.170;2023-04-08T07:12:29;19.55;;;7.80;;
46090;SDS011;31826;53.572;10.170;2023-04-08T07:14:55;21.10;;;8.13;;
46090;SDS011;31826;53.572;10.170;2023-04-08T07:17:21;22.02;;;8.48;;
46090;SDS011;31826;53.572;10.170;2023-04-08T07:19:46;19.58;;;8.07;;
46090;SDS011;31826;53.572;10.170;2023-04-08T07:22:13;18.13;;;7.50;;
46090;SDS011;31826;53.572;10.170;2023-04-08T07:24:39;20.67;;;8.73;;
46090;SDS011;31826;53.572;10.170;2023-04-08T07:27:07;19.98;;;7.15;;
46090;SDS011;31826;53.572;10.170;2023-04-08T07:29:33;19.23;;;7.05;;
46090;SDS011;31826;53.572;10.170;2023-04-08T07:31:58;19.38;;;7.43;;
46090;SDS011;31826;53.572;10.170;2023-04-08T07:34:24;19.67;;;7.60;;
46090;SDS011;31826;53.572;10.170;2023-04-08T07:36:50;18.35;;;7.80;;
46090;SDS011;31826;53.572;10.170;2023-04-08T07:39:16;17.73;;;7.53;;
46090;SDS011;31826;53.572;10.170;2023-04-08T07:41:41;20.08;;;8.27;;
46090;SDS011;31826;53.572;10.170;2023-04-08T07:44:07;17.73;;;7.45;;
46090;SDS011;31826;53.572;10.170;2023-04-08T07:46:36;18.25;;;7.57;;
46090;SDS011;31826;53.572;10.170;2023-04-08T07:49:02;17.75;;;6.78;;
46090;SDS011;31826;53.572;10.170;2023-04-08T07:51:28;18.75;;;7.05;;
46090;SDS011;31826;53.572;10.170;2023-04-08T07:53:54;16.42;;;6.68;;
46090;SDS011;31826;53.572;10.170;2023-04-08T07:56:19;16.02;;;6.72;;
46090;SDS011;31826;53.572;10.170;2023-04-08T07:58:46;14.85;;;6.50;;
46090;SDS011;31826;53.572;10.170;2023-04-08T08:01:18;20.92;;;7.28;;
46090;SDS011;31826;53.572;10.170;2023-04-08T08:03:46;15.13;;;6.18;;
46090;SDS011;31826;53.572;10.170;2023-04-08T08:06:13;16.95;;;7.13;;
46090;SDS011;31826;53.572;10.170;2023-04-08T08:08:38;13.27;;;5.88;;
46090;SDS011;31826;53.572;10.170;2023-04-08T08:11:04;15.57;;;6.93;;
46090;SDS011;31826;53.572;10.170;2023-04-08T08:13:30;14.10;;;6.63;;
46090;SDS011;31826;53.572;10.170;2023-04-08T08:15:56;15.80;;;6.70;;
46090;SDS011;31826;53.572;10.170;2023-04-08T08:18:22;15.80;;;6.85;;
46090;SDS011;31826;53.572;10.170;2023-04-08T08:20:48;15.90;;;7.10;;
46090;SDS011;31826;53.572;10.170;2023-04-08T08:23:14;16.07;;;6.53;;
46090;SDS011;31826;53.572;10.170;2023-04-08T08:25:39;17.20;;;6.97;;
46090;SDS011;31826;53.572;10.170;2023-04-08T08:28:05;18.00;;;6.90;;
46090;SDS011;31826;53.572;10.170;2023-04-08T08:30:31;16.90;;;7.30;;
46090;SDS011;31826;53.572;10.170;2023-04-08T08:32:56;18.10;;;7.80;;
46090;SDS011;31826;53.572;10.170;2023-04-08T08:35:23;15.00;;;6.72;;
46090;SDS011;31826;53.572;10.170;2023-04-08T08:37:49;20.95;;;8.40;;
46090;SDS011;31826;53.572;10.170;2023-04-08T08:40:15;17.08;;;7.13;;
46090;SDS011;31826;53.572;10.170;2023-04-08T08:42:41;19.20;;;8.02;;
46090;SDS011;31826;53.572;10.170;2023-04-08T08:45:14;18.77;;;7.33;;
46090;SDS011;31826;53.572;10.170;2023-04-08T08:47:41;17.63;;;8.48;;
46090;SDS011;31826;53.572;10.170;2023-04-08T08:50:06;18.58;;;7.57;;
46090;SDS011;31826;53.572;10.170;2023-04-08T08:52:32;20.27;;;8.25;;
46090;SDS011;31826;53.572;10.170;2023-04-08T08:54:58;18.98;;;8.07;;
46090;SDS011;31826;53.572;10.170;2023-04-08T08:57:24;20.13;;;8.82;;
46090;SDS011;31826;53.572;10.170;2023-04-08T08:59:50;20.17;;;7.97;;
46090;SDS011;31826;53.572;10.170;2023-04-08T09:02:28;17.50;;;7.40;;
46090;SDS011;31826;53.572;10.170;2023-04-08T09:05:05;20.85;;;8.60;;
46090;SDS011;31826;53.572;10.170;2023-04-08T09:07:31;21.53;;;9.73;;
46090;SDS011;31826;53.572;10.170;2023-04-08T09:10:00;21.52;;;8.75;;
46090;SDS011;31826;53.572;10.170;2023-04-08T09:12:26;19.17;;;9.40;;
46090;SDS011;31826;53.572;10.170;2023-04-08T09:15:08;16.58;;;7.45;;
46090;SDS011;31826;53.572;10.170;2023-04-08T09:17:38;24.00;;;8.05;;
46090;SDS011;31826;53.572;10.170;2023-04-08T09:20:06;16.08;;;7.25;;
46090;SDS011;31826;53.572;10.170;2023-04-08T09:22:53;15.55;;;7.35;;
46090;SDS011;31826;53.572;10.170;2023-04-08T09:25:28;16.90;;;7.55;;
46090;SDS011;31826;53.572;10.170;2023-04-08T09:27:56;18.23;;;8.30;;
46090;SDS011;31826;53.572;10.170;2023-04-08T09:30:22;19.35;;;7.75;;
46090;SDS011;31826;53.572;10.170;2023-04-08T09:32:53;17.63;;;7.53;;
46090;SDS011;31826;53.572;10.170;2023-04-08T09:35:20;16.77;;;7.47;;
46090;SDS011;31826;53.572;10.170;2023-04-08T09:37:48;17.83;;;7.32;;
46090;SDS011;31826;53.572;10.170;2023-04-08T09:40:14;18.42;;;8.07;;
46090;SDS011;31826;53.572;10.170;2023-04-08T09:42:42;17.92;;;7.82;;
46090;SDS011;31826;53.572;10.170;2023-04-08T09:45:09;18.42;;;7.70;;
46090;SDS011;31826;53.572;10.170;2023-04-08T09:47:39;19.03;;;8.67;;
46090;SDS011;31826;53.572;10.170;2023-04-08T09:50:12;17.80;;;8.13;;
46090;SDS011;31826;53.572;10.170;2023-04-08T09:52:43;17.27;;;7.70;;
46090;SDS011;31826;53.572;10.170;2023-04-08T09:55:12;19.23;;;7.82;;
46090;SDS011;31826;53.572;10.170;2023-04-08T10:00:18;19.85;;;8.63;;
46090;SDS011;31826;53.572;10.170;2023-04-08T10:05:18;16.73;;;7.47;;
46090;SDS011;31826;53.572;10.170;2023-04-08T10:07:45;17.00;;;7.32;;
46090;SDS011;31826;53.572;10.170;2023-04-08T10:10:11;17.88;;;8.07;;
46090;SDS011;31826;53.572;10.170;2023-04-08T10:12:37;17.93;;;8.13;;
46090;SDS011;31826;53.572;10.170;2023-04-08T10:17:52;21.90;;;9.25;;
46090;SDS011;31826;53.572;10.170;2023-04-08T10:23:00;19.88;;;7.55;;
46090;SDS011;31826;53.572;10.170;2023-04-08T10:25:34;17.75;;;8.65;;
46090;SDS011;31826;53.572;10.170;2023-04-08T10:28:01;19.73;;;8.35;;
46090;SDS011;31826;53.572;10.170;2023-04-08T10:30:56;19.80;;;8.77;;
46090;SDS011;31826;53.572;10.170;2023-04-08T10:38:35;20.75;;;9.43;;
46090;SDS011;31826;53.572;10.170;2023-04-08T10:41:02;21.33;;;9.77;;
46090;SDS011;31826;53.572;10.170;2023-04-08T10:43:32;21.83;;;9.60;;
46090;SDS011;31826;53.572;10.170;2023-04-08T10:45:58;27.55;;;10.52;;
46090;SDS011;31826;53.572;10.170;2023-04-08T10:48:24;20.85;;;10.27;;
46090;SDS011;31826;53.572;10.170;2023-04-08T10:50:53;19.48;;;8.60;;
46090;SDS011;31826;53.572;10.170;2023-04-08T10:53:24;22.52;;;10.65;;
46090;SDS011;31826;53.572;10.170;2023-04-08T10:55:52;23.90;;;10.55;;
46090;SDS011;31826;53.572;10.170;2023-04-08T10:58:18;19.13;;;8.75;;
46090;SDS011;31826;53.572;10.170;2023-04-08T11:00:43;21.43;;;9.67;;
46090;SDS011;31826;53.572;10.170;2023-04-08T11:03:09;20.43;;;9.17;;
46090;SDS011;31826;53.572;10.170;2023-04-08T11:05:36;21.10;;;9.40;;
46090;SDS011;31826;53.572;10.170;2023-04-08T11:08:03;19.05;;;8.73;;
46090;SDS011;31826;53.572;10.170;2023-04-08T11:10:29;19.23;;;9.68;;
46090;SDS011;31826;53.572;10.170;2023-04-08T11:13:00;20.85;;;9.18;;
46090;SDS011;31826;53.572;10.170;2023-04-08T11:15:28;21.38;;;9.27;;
46090;SDS011;31826;53.572;10.170;2023-04-08T11:17:55;20.63;;;9.18;;
46090;SDS011;31826;53.572;10.170;2023-04-08T11:20:21;20.00;;;8.85;;
46090;SDS011;31826;53.572;10.170;2023-04-08T11:22:47;20.47;;;9.07;;
46090;SDS011;31826;53.572;10.170;2023-04-08T11:25:14;18.75;;;8.40;;
46090;SDS011;31826;53.572;10.170;2023-04-08T11:27:40;18.35;;;8.50;;
46090;SDS011;31826;53.572;10.170;2023-04-08T11:30:06;18.43;;;9.43;;
46090;SDS011;31826;53.572;10.170;2023-04-08T11:32:33;18.73;;;8.87;;
46090;SDS011;31826;53.572;10.170;2023-04-08T11:35:00;30.50;;;13.65;;
46090;SDS011;31826;53.572;10.170;2023-04-08T11:37:38;23.93;;;10.60;;
46090;SDS011;31826;53.572;10.170;2023-04-08T11:42:34;21.15;;;9.32;;
46090;SDS011;31826;53.572;10.170;2023-04-08T11:45:00;19.40;;;8.48;;
46090;SDS011;31826;53.572;10.170;2023-04-08T11:47:29;18.33;;;8.32;;
46090;SDS011;31826;53.572;10.170;2023-04-08T11:49:57;18.67;;;7.93;;
46090;SDS011;31826;53.572;10.170;2023-04-08T11:52:39;19.45;;;8.40;;
46090;SDS011;31826;53.572;10.170;2023-04-08T11:55:32;16.88;;;7.78;;
46090;SDS011;31826;53.572;10.170;2023-04-08T11:58:03;20.30;;;8.20;;
46090;SDS011;31826;53.572;10.170;2023-04-08T12:00:31;21.03;;;8.97;;
46090;SDS011;31826;53.572;10.170;2023-04-08T12:02:57;20.27;;;8.90;;
46090;SDS011;31826;53.572;10.170;2023-04-08T12:05:23;26.08;;;11.10;;
46090;SDS011;31826;53.572;10.170;2023-04-08T12:07:48;21.52;;;8.95;;
46090;SDS011;31826;53.572;10.170;2023-04-08T12:10:14;20.63;;;9.65;;
46090;SDS011;31826;53.572;10.170;2023-04-08T12:12:40;19.25;;;8.60;;
46090;SDS011;31826;53.572;10.170;2023-04-08T12:15:06;17.77;;;8.80;;
46090;SDS011;31826;53.572;10.170;2023-04-08T12:17:32;17.90;;;8.25;;
46090;SDS011;31826;53.572;10.170;2023-04-08T12:20:02;19.83;;;8.52;;
46090;SDS011;31826;53.572;10.170;2023-04-08T12:22:31;18.65;;;8.52;;
46090;SDS011;31826;53.572;10.170;2023-04-08T12:24:57;16.40;;;8.30;;
46090;SDS011;31826;53.572;10.170;2023-04-08T12:27:23;20.05;;;8.90;;
46090;SDS011;31826;53.572;10.170;2023-04-08T12:29:48;19.63;;;8.65;;
46090;SDS011;31826;53.572;10.170;2023-04-08T12:32:16;17.45;;;7.97;;
46090;SDS011;31826;53.572;10.170;2023-04-08T12:34:41;17.30;;;8.27;;
46090;SDS011;31826;53.572;10.170;2023-04-08T12:37:07;20.10;;;9.35;;
46090;SDS011;31826;53.572;10.170;2023-04-08T12:39:33;18.70;;;8.60;;
46090;SDS011;31826;53.572;10.170;2023-04-08T12:41:59;18.23;;;8.55;;
46090;SDS011;31826;53.572;10.170;2023-04-08T12:44:25;18.30;;;8.90;;
46090;SDS011;31826;53.572;10.170;2023-04-08T12:46:51;17.30;;;8.80;;
46090;SDS011;31826;53.572;10.170;2023-04-08T12:49:16;22.80;;;10.17;;
46090;SDS011;31826;53.572;10.170;2023-04-08T12:51:42;24.00;;;11.83;;
46090;SDS011;31826;53.572;10.170;2023-04-08T12:54:08;18.47;;;9.63;;
46090;SDS011;31826;53.572;10.170;2023-04-08T12:56:33;18.37;;;8.03;;
46090;SDS011;31826;53.572;10.170;2023-04-08T12:58:59;20.80;;;8.43;;
46090;SDS011;31826;53.572;10.170;2023-04-08T13:01:25;18.80;;;8.50;;
46090;SDS011;31826;53.572;10.170;2023-04-08T13:03:51;16.85;;;8.23;;
46090;SDS011;31826;53.572;10.170;2023-04-08T13:06:17;21.08;;;8.40;;
46090;SDS011;31826;53.572;10.170;2023-04-08T13:08:43;18.10;;;8.48;;
46090;SDS011;31826;53.572;10.170;2023-04-08T13:11:08;15.95;;;8.00;;
46090;SDS011;31826;53.572;10.170;2023-04-08T13:13:34;18.63;;;8.40;;
46090;SDS011;31826;53.572;10.170;2023-04-08T13:16:00;18.77;;;8.68;;
46090;SDS011;31826;53.572;10.170;2023-04-08T13:18:27;19.17;;;8.15;;
46090;SDS011;31826;53.572;10.170;2023-04-08T13:20:52;17.10;;;8.30;;
46090;SDS011;31826;53.572;10.170;2023-04-08T13:23:18;19.75;;;8.75;;
46090;SDS011;31826;53.572;10.170;2023-04-08T13:25:46;18.58;;;8.63;;
46090;SDS011;31826;53.572;10.170;2023-04-08T13:28:12;21.48;;;9.90;;
46090;SDS011;31826;53.572;10.170;2023-04-08T13:30:38;18.25;;;8.23;;
46090;SDS011;31826;53.572;10.170;2023-04-08T13:33:04;19.05;;;8.02;;
46090;SDS011;31826;53.572;10.170;2023-04-08T13:35:29;17.50;;;8.93;;
46090;SDS011;31826;53.572;10.170;2023-04-08T13:37:55;16.88;;;8.10;;
46090;SDS011;31826;53.572;10.170;2023-04-08T13:40:21;18.48;;;8.88;;
46090;SDS011;31826;53.572;10.170;2023-04-08T13:42:46;17.85;;;9.18;;
46090;SDS011;31826;53.572;10.170;2023-04-08T13:45:15;19.50;;;8.82;;
46090;SDS011;31826;53.572;10.170;2023-04-08T13:47:40;17.52;;;8.65;;
46090;SDS011;31826;53.572;10.170;2023-04-08T13:50:06;19.27;;;8.50;;
46090;SDS011;31826;53.572;10.170;2023-04-08T13:52:33;17.20;;;8.50;;
46090;SDS011;31826;53.572;10.170;2023-04-08T13:54:59;18.35;;;9.45;;
46090;SDS011;31826;53.572;10.170;2023-04-08T13:57:24;20.48;;;8.50;;
46090;SDS011;31826;53.572;10.170;2023-04-08T13:59:50;20.08;;;8.93;;
46090;SDS011;31826;53.572;10.170;2023-04-08T14:02:16;18.77;;;9.38;;
46090;SDS011;31826;53.572;10.170;2023-04-08T14:04:42;20.80;;;9.02;;
46090;SDS011;31826;53.572;10.170;2023-04-08T14:07:09;20.13;;;9.20;;
46090;SDS011;31826;53.572;10.170;2023-04-08T14:09:38;20.85;;;8.25;;
46090;SDS011;31826;53.572;10.170;2023-04-08T14:12:04;20.67;;;9.52;;
46090;SDS011;31826;53.572;10.170;2023-04-08T14:14:30;22.95;;;9.77;;
46090;SDS011;31826;53.572;10.170;2023-04-08T14:16:56;19.67;;;9.65;;
46090;SDS011;31826;53.572;10.170;2023-04-08T14:19:21;18.75;;;8.93;;
46090;SDS011;31826;53.572;10.170;2023-04-08T14:21:47;20.95;;;9.63;;
46090;SDS011;31826;53.572;10.170;2023-04-08T14:24:13;20.75;;;9.60;;
46090;SDS011;31826;53.572;10.170;2023-04-08T14:26:39;19.17;;;10.10;;
46090;SDS011;31826;53.572;10.170;2023-04-08T14:29:05;21.37;;;9.27;;
46090;SDS011;31826;53.572;10.170;2023-04-08T14:31:32;19.13;;;9.07;;
46090;SDS011;31826;53.572;10.170;2023-04-08T14:33:58;17.90;;;9.20;;
46090;SDS011;31826;53.572;10.170;2023-04-08T14:36:25;19.80;;;9.57;;
46090;SDS011;31826;53.572;10.170;2023-04-08T14:38:52;23.95;;;10.15;;
46090;SDS011;31826;53.572;10.170;2023-04-08T14:41:18;18.55;;;9.90;;
46090;SDS011;31826;53.572;10.170;2023-04-08T14:43:44;19.07;;;9.73;;
46090;SDS011;31826;53.572;10.170;2023-04-08T14:46:09;20.20;;;9.10;;